Time;durP1;ratioP1;P1;durP2;ratioP2;P2;SDS_P1;SDS_P2;PMS_P1;PMS_P2;Temp;Humidity;BMP_temperature;BMP_pressure;BME280_temperature;BME280_humidity;BME280_pressure;Samples;Min_cycle;Max_cycle;Signal;HPM_P1;HPM_P2
2023/05/26 00:02:19;;;;;;;;;;;;;;;-143.29;100.00;62188.47;4630838;31;20293;-92
2023/05/26 00:04:44;;;;;;;;;;;;;;;-143.29;100.00;62188.47;4631557;30;19931;-92
2023/05/26 00:07:10;;;;;;;;;;;;;;;-143.29;100.00;62188.47;4631146;30;20463;-92
2023/05/26 00:09:36;;;;;;;;;;;;;;;-143.29;100.00;62188.47;4631751;30;20016;-91
2023/05/26 00:12:01;;;;;;;;;;;;;;;-143.29;100.00;62188.47;4631781;30;19924;-92
2023/05/26 00:14:27;;;;;;;;;;;;;;;-143.29;100.00;62188.47;4631846;30;20412;-92
2023/05/26 00:16:53;;;;;;;;;;;;;;;-143.29;100.00;62188.47;4631749;30;19925;-91
2023/05/26 00:19:19;;;;;;;;;;;;;;;-143.29;100.00;62188.47;4630565;30;20011;-92
2023/05/26 00:21:45;;;;;;;;;;;;;;;-143.29;100.00;62188.47;4630376;30;19924;-91
2023/05/26 00:24:10;;;;;;;;;;;;;;;-143.29;100.00;62188.47;4631686;30;19921;-92
2023/05/26 00:26:36;;;;;;;;;;;;;;;-143.29;100.00;62188.47;4631636;30;19925;-91
2023/05/26 00:29:01;;;;;;;;;;;;;;;-143.29;100.00;62188.47;4631296;31;19932;-92
2023/05/26 00:31:27;;;;;;;;;;;;;;;-143.29;100.00;62188.47;4630139;30;20338;-92
2023/05/26 00:33:52;;;;;;;;;;;;;;;-143.29;100.00;62188.47;4631453;30;19932;-91
2023/05/26 00:36:17;;;;;;;;;;;;;;;-143.29;100.00;62188.47;4630257;30;19928;-92
2023/05/26 00:38:42;;;;;;;;;;;;;;;-143.29;100.00;62188.47;4630875;30;20015;-92
2023/05/26 00:41:08;;;;;;;;;;;;;;;-143.29;100.00;62188.47;4631704;30;20305;-93
2023/05/26 00:43:33;;;;;;;;;;;;;;;-143.29;100.00;62188.47;4631425;30;19947;-92
2023/05/26 00:45:58;;;;;;;;;;;;;;;-143.29;100.00;62188.47;4631291;30;20057;-92
2023/05/26 00:48:23;;;;;;;;;;;;;;;-143.29;100.00;62188.47;4631154;30;19924;-92
2023/05/26 00:50:49;;;;;;;;;;;;;;;-143.29;100.00;62188.47;4631763;30;20024;-92
2023/05/26 00:53:16;;;;;;;;;;;;;;;-143.29;100.00;62188.47;4630280;30;20400;-92
2023/05/26 00:55:42;;;;;;;;;;;;;;;-143.29;100.00;62188.47;4630469;30;19925;-92
2023/05/26 00:58:07;;;;;;;;;;;;;;;-143.29;100.00;62188.47;4631687;30;19925;-92
2023/05/26 01:00:33;;;;;;;;;;;;;;;-143.29;100.00;62188.47;4631220;30;19995;-92
2023/05/26 01:02:58;;;;;;;;;;;;;;;-143.29;100.00;62188.47;4631271;30;19956;-91
2023/05/26 01:05:24;;;;;;;;;;;;;;;-143.29;100.00;62188.47;4631252;30;19931;-91
2023/05/26 01:07:49;;;;;;;;;;;;;;;-143.29;100.00;62188.47;4630155;30;19929;-91
2023/05/26 01:10:15;;;;;;;;;;;;;;;-143.29;100.00;62188.47;4631225;30;19924;-91
2023/05/26 01:12:44;;;;;;;;;;;;;;;-143.29;100.00;62188.47;4630226;30;20400;-93
2023/05/26 01:15:12;;;;;;;;;;;;;;;-143.29;100.00;62188.47;4645244;30;19933;-91
2023/05/26 01:17:49;;;;;;;;;;;;;;;-143.29;100.00;62188.47;4634109;30;19931;-92
2023/05/26 01:20:15;;;;;;;;;;;;;;;-143.29;100.00;62188.47;4634251;30;20281;-91
2023/05/26 01:22:48;;;;;;;;;;;;;;;-143.29;100.00;62188.47;4634125;30;19976;-92
2023/05/26 01:25:29;;;;;;;;;;;;;;;-143.29;100.00;62188.47;4621920;30;19981;-92
2023/05/26 01:28:10;;;;;;;;;;;;;;;-143.29;100.00;62188.47;4630608;31;19976;-92
2023/05/26 01:30:35;;;;;;;;;;;;;;;-143.29;100.00;62188.47;4646701;30;19925;-92
2023/05/26 01:33:01;;;;;;;;;;;;;;;-143.29;100.00;62188.47;4646966;30;19984;-92
2023/05/26 01:35:26;;;;;;;;;;;;;;;-143.29;100.00;62188.47;4633959;30;20019;-92
2023/05/26 01:37:52;;;;;;;;;;;;;;;-143.29;100.00;62188.47;4646776;30;19925;-92
2023/05/26 01:40:17;;;;;;;;;;;;;;;-143.29;100.00;62188.47;4634044;30;19928;-92
2023/05/26 01:42:48;;;;;;;;;;;;;;;-143.29;100.00;62188.47;4634106;30;19924;-91
2023/05/26 01:45:20;;;;;;;;;;;;;;;-143.29;100.00;62188.47;4646971;30;19984;-92
2023/05/26 01:47:49;;;;;;;;;;;;;;;-143.29;100.00;62188.47;4634071;30;20357;-92
2023/05/26 01:50:16;;;;;;;;;;;;;;;-143.29;100.00;62188.47;4634017;30;19929;-92
2023/05/26 01:52:43;;;;;;;;;;;;;;;-143.29;100.00;62188.47;4646849;30;19925;-92
2023/05/26 01:55:11;;;;;;;;;;;;;;;-143.29;100.00;62188.47;4633681;30;19929;-91
2023/05/26 01:57:36;;;;;;;;;;;;;;;-143.29;100.00;62188.47;4633772;30;19924;-91
2023/05/26 02:00:03;;;;;;;;;;;;;;;-143.29;100.00;62188.47;4646500;30;19983;-92
2023/05/26 02:02:28;;;;;;;;;;;;;;;-143.29;100.00;62188.47;4632041;30;19925;-91
2023/05/26 02:04:54;;;;;;;;;;;;;;;-143.29;100.00;62188.47;4645952;30;20285;-93
2023/05/26 02:07:19;;;;;;;;;;;;;;;-143.29;100.00;62188.47;4633244;30;19938;-92
2023/05/26 02:09:45;;;;;;;;;;;;;;;-143.29;100.00;62188.47;4631954;30;19925;-92
2023/05/26 02:12:10;;;;;;;;;;;;;;;-143.29;100.00;62188.47;4646014;30;19947;-91
2023/05/26 02:14:35;;;;;;;;;;;;;;;-143.29;100.00;62188.47;4645870;30;19935;-91
2023/05/26 02:17:00;;;;;;;;;;;;;;;-143.29;100.00;62188.47;4631787;30;19964;-91
2023/05/26 02:19:26;;;;;;;;;;;;;;;-143.29;100.00;62188.47;4631618;30;19925;-91
2023/05/26 02:21:52;;;;;;;;;;;;;;;-143.29;100.00;62188.47;4645820;30;20397;-92
2023/05/26 02:24:19;;;;;;;;;;;;;;;-143.29;100.00;62188.47;4645395;30;22121;-91
2023/05/26 02:26:45;;;;;;;;;;;;;;;-143.29;100.00;62188.47;4633028;30;19928;-92
2023/05/26 02:29:11;;;;;;;;;;;;;;;-143.29;100.00;62188.47;4632880;30;19984;-91
2023/05/26 02:31:37;;;;;;;;;;;;;;;-143.29;100.00;62188.47;4645667;30;20396;-91
2023/05/26 02:34:04;;;;;;;;;;;;;;;-143.29;100.00;62188.47;4645601;30;19925;-92
2023/05/26 02:36:31;;;;;;;;;;;;;;;-143.29;100.00;62188.47;4632714;30;19965;-92
2023/05/26 02:38:57;;;;;;;;;;;;;;;-143.29;100.00;62188.47;4632454;30;19932;-91
2023/05/26 02:41:22;;;;;;;;;;;;;;;-143.29;100.00;62188.47;4645367;30;19924;-91
2023/05/26 02:43:47;;;;;;;;;;;;;;;-143.29;100.00;62188.47;4632637;30;19924;-92
2023/05/26 02:46:13;;;;;;;;;;;;;;;-143.29;100.00;62188.47;4632792;30;20381;-92
2023/05/26 02:48:39;;;;;;;;;;;;;;;-143.29;100.00;62188.47;4632372;30;20436;-92
2023/05/26 02:51:04;;;;;;;;;;;;;;;-143.29;100.00;62188.47;4632411;30;20022;-90
2023/05/26 02:53:29;;;;;;;;;;;;;;;-143.29;100.00;62188.47;4631108;30;19960;-91
2023/05/26 02:55:55;;;;;;;;;;;;;;;-143.29;100.00;62188.47;4630983;30;19975;-92
2023/05/26 02:58:20;;;;;;;;;;;;;;;-143.29;100.00;62188.47;4632222;30;19924;-91
2023/05/26 03:00:45;;;;;;;;;;;;;;;-143.29;100.00;62188.47;4645371;30;19924;-91
2023/05/26 03:03:10;;;;;;;;;;;;;;;-143.29;100.00;62188.47;4632295;30;19931;-92
2023/05/26 03:05:36;;;;;;;;;;;;;;;-143.29;100.00;62188.47;4631099;30;19925;-91
2023/05/26 03:08:03;;;;;;;;;;;;;;;-143.29;100.00;62188.47;4632526;30;19971;-92
2023/05/26 03:10:29;;;;;;;;;;;;;;;-143.29;100.00;62188.47;4632410;30;19924;-92
2023/05/26 03:12:54;;;;;;;;;;;;;;;-143.29;100.00;62188.47;4644855;30;19932;-92
2023/05/26 03:15:19;;;;;;;;;;;;;;;-143.29;100.00;62188.47;4631040;30;19928;-91
2023/05/26 03:17:44;;;;;;;;;;;;;;;-143.29;100.00;62188.47;4644865;30;19925;-91
2023/05/26 03:20:11;;;;;;;;;;;;;;;-143.29;100.00;62188.47;4632007;30;20014;-91
2023/05/26 03:22:36;;;;;;;;;;;;;;;-143.29;100.00;62188.47;4631897;30;19992;-91
2023/05/26 03:25:01;;;;;;;;;;;;;;;-143.29;100.00;62188.47;4631836;30;20537;-91
2023/05/26 03:27:27;;;;;;;;;;;;;;;-143.29;100.00;62188.47;4631926;30;19948;-92
2023/05/26 03:29:52;;;;;;;;;;;;;;;-143.29;100.00;62188.47;4631791;30;19931;-92
2023/05/26 03:32:17;;;;;;;;;;;;;;;-143.29;100.00;62188.47;4644689;30;20019;-91
2023/05/26 03:34:44;;;;;;;;;;;;;;;-143.29;100.00;62188.47;4644685;30;20405;-91
2023/05/26 03:37:09;;;;;;;;;;;;;;;-143.29;100.00;62188.47;4631570;30;20385;-91
2023/05/26 03:39:35;;;;;;;;;;;;;;;-143.29;100.00;62188.47;4631213;30;19928;-91
2023/05/26 03:42:00;;;;;;;;;;;;;;;-143.29;100.00;62188.47;4644628;30;19931;-90
2023/05/26 03:44:26;;;;;;;;;;;;;;;-143.29;100.00;62188.47;4631941;30;20028;-91
2023/05/26 03:46:51;;;;;;;;;;;;;;;-143.29;100.00;62188.47;4631525;30;19924;-91
2023/05/26 03:49:17;;;;;;;;;;;;;;;-143.29;100.00;62188.47;4631665;30;20349;-92
2023/05/26 03:51:42;;;;;;;;;;;;;;;-143.29;100.00;62188.47;4644330;30;19931;-92
2023/05/26 03:54:07;;;;;;;;;;;;;;;-143.29;100.00;62188.47;4631611;30;19924;-91
2023/05/26 03:56:33;;;;;;;;;;;;;;;-143.29;100.00;62188.47;4631601;30;19924;-91
2023/05/26 03:58:58;;;;;;;;;;;;;;;-143.29;100.00;62188.47;4631294;30;19924;-92
2023/05/26 04:01:24;;;;;;;;;;;;;;;-143.29;100.00;62188.47;4631583;30;19924;-91
2023/05/26 04:03:49;;;;;;;;;;;;;;;-143.29;100.00;62188.47;4644342;30;20412;-91
2023/05/26 04:06:14;;;;;;;;;;;;;;;-143.29;100.00;62188.47;4630199;30;20285;-91
2023/05/26 04:08:40;;;;;;;;;;;;;;;-143.29;100.00;62188.47;4631194;30;20087;-91
2023/05/26 04:11:05;;;;;;;;;;;;;;;-143.29;100.00;62188.47;4630024;30;19975;-91
2023/05/26 04:13:30;;;;;;;;;;;;;;;-143.29;100.00;62188.47;4631288;30;19984;-91
2023/05/26 04:15:55;;;;;;;;;;;;;;;-143.29;100.00;62188.47;4644056;30;20285;-92
2023/05/26 04:18:23;;;;;;;;;;;;;;;-143.29;100.00;62188.47;4631332;30;20011;-91
2023/05/26 04:20:48;;;;;;;;;;;;;;;-143.29;100.00;62188.47;4644347;30;19925;-91
2023/05/26 04:23:13;;;;;;;;;;;;;;;-143.29;100.00;62188.47;4631246;30;19935;-91
2023/05/26 04:25:40;;;;;;;;;;;;;;;-143.29;100.00;62188.47;4631327;30;19972;-92
2023/05/26 04:28:07;;;;;;;;;;;;;;;-143.29;100.00;62188.47;4631213;30;19931;-91
2023/05/26 04:30:32;;;;;;;;;;;;;;;-143.29;100.00;62188.47;4631013;30;19932;-91
2023/05/26 04:32:58;;;;;;;;;;;;;;;-143.29;100.00;62188.47;4644130;30;19925;-92
2023/05/26 04:35:24;;;;;;;;;;;;;;;-143.29;100.00;62188.47;4631085;30;19924;-91
2023/05/26 04:37:50;;;;;;;;;;;;;;;-143.29;100.00;62188.47;4631007;30;19935;-91
2023/05/26 04:40:16;;;;;;;;;;;;;;;-143.29;100.00;62188.47;4630915;30;19928;-91
2023/05/26 04:42:43;;;;;;;;;;;;;;;-143.29;100.00;62188.47;4624654;30;20390;-91
2023/05/26 04:45:09;;;;;;;;;;;;;;;-143.29;100.00;62188.47;4620472;31;19936;-91
2023/05/26 04:47:36;;;;;;;;;;;;;;;-143.29;100.00;62188.47;4629054;30;19925;-91
2023/05/26 04:50:01;;;;;;;;;;;;;;;-143.29;100.00;62188.47;4627547;31;19932;-91
2023/05/26 04:52:27;;;;;;;;;;;;;;;-143.29;100.00;62188.47;4639518;30;19929;-91
2023/05/26 04:54:52;;;;;;;;;;;;;;;-143.29;100.00;62188.47;4634041;30;19921;-91
2023/05/26 04:57:18;;;;;;;;;;;;;;;-143.29;100.00;62188.47;4634227;30;19924;-92
2023/05/26 04:59:44;;;;;;;;;;;;;;;-143.29;100.00;62188.47;4636852;30;19928;-92
2023/05/26 05:02:10;;;;;;;;;;;;;;;-143.29;100.00;62188.47;4647130;30;20030;-91
2023/05/26 05:04:35;;;;;;;;;;;;;;;-143.29;100.00;62188.47;4634136;30;20382;-93
2023/05/26 05:07:00;;;;;;;;;;;;;;;-143.29;100.00;62188.47;4636988;30;20155;-91
2023/05/26 05:09:26;;;;;;;;;;;;;;;-143.29;100.00;62188.47;4630345;30;19925;-91
2023/05/26 05:11:51;;;;;;;;;;;;;;;-143.29;100.00;62188.47;4617311;31;20390;-90
2023/05/26 05:14:16;;;;;;;;;;;;;;;-143.29;100.00;62188.47;4617082;31;19933;-90
2023/05/26 05:16:41;;;;;;;;;;;;;;;-143.29;100.00;62188.47;4623428;30;20027;-91
2023/05/26 05:19:07;;;;;;;;;;;;;;;-143.29;100.00;62188.47;4645055;30;19996;-91
2023/05/26 05:21:32;;;;;;;;;;;;;;;-143.29;100.00;62188.47;4631498;30;20378;-92
2023/05/26 05:23:57;;;;;;;;;;;;;;;-143.29;100.00;62188.47;4632757;30;19975;-92
2023/05/26 05:26:23;;;;;;;;;;;;;;;-143.29;100.00;62188.47;4632542;31;19935;-96
2023/05/26 05:28:48;;;;;;;;;;;;;;;-143.29;100.00;62188.47;4646690;30;19928;-91
2023/05/26 05:31:13;;;;;;;;;;;;;;;-143.29;100.00;62188.47;4646528;30;20313;-91
2023/05/26 05:33:38;;;;;;;;;;;;;;;-143.29;100.00;62188.47;4627763;30;20046;-91
2023/05/26 05:36:04;;;;;;;;;;;;;;;-143.29;100.00;62188.47;4627138;31;20301;-93
2023/05/26 05:38:29;;;;;;;;;;;;;;;-143.29;100.00;62188.47;4620060;31;19936;-91
2023/05/26 05:40:54;;;;;;;;;;;;;;;-143.29;100.00;62188.47;4617010;31;19989;-92
2023/05/26 05:43:20;;;;;;;;;;;;;;;-143.29;100.00;62188.47;4617004;31;19929;-91
2023/05/26 05:45:45;;;;;;;;;;;;;;;-143.29;100.00;62188.47;4616643;31;19925;-93
2023/05/26 05:48:10;;;;;;;;;;;;;;;-143.29;100.00;62188.47;4629610;31;19971;-92
2023/05/26 05:50:35;;;;;;;;;;;;;;;-143.29;100.00;62188.47;4615552;31;20370;-92
2023/05/26 05:53:01;;;;;;;;;;;;;;;-143.29;100.00;62188.47;4616727;31;19925;-92
2023/05/26 05:55:26;;;;;;;;;;;;;;;-143.29;100.00;62188.47;4616644;31;20286;-92
2023/05/26 05:57:53;;;;;;;;;;;;;;;-143.29;100.00;62188.47;4629587;31;19980;-92
2023/05/26 06:00:18;;;;;;;;;;;;;;;-143.29;100.00;62188.47;4616386;31;19925;-91
2023/05/26 06:02:44;;;;;;;;;;;;;;;-143.29;100.00;62188.47;4616277;31;19921;-92
2023/05/26 06:05:09;;;;;;;;;;;;;;;-143.29;100.00;62188.47;4629333;31;19925;-92
2023/05/26 06:07:34;;;;;;;;;;;;;;;-143.29;100.00;62188.47;4629060;31;19920;-93
2023/05/26 06:10:00;;;;;;;;;;;;;;;-143.29;100.00;62188.47;4616544;31;19925;-92
2023/05/26 06:12:25;;;;;;;;;;;;;;;-143.29;100.00;62188.47;4616795;31;19995;-91
2023/05/26 06:14:50;;;;;;;;;;;;;;;-143.29;100.00;62188.47;4616407;31;20362;-92
2023/05/26 06:17:16;;;;;;;;;;;;;;;-143.29;100.00;62188.47;4629183;31;19925;-91
2023/05/26 06:19:41;;;;;;;;;;;;;;;-143.29;100.00;62188.47;4629015;31;20404;-93
2023/05/26 06:22:06;;;;;;;;;;;;;;;-143.29;100.00;62188.47;4629037;31;19985;-91
2023/05/26 06:24:31;;;;;;;;;;;;;;;-143.29;100.00;62188.47;4629027;31;19929;-91
2023/05/26 06:26:57;;;;;;;;;;;;;;;-143.29;100.00;62188.47;4616229;31;19968;-92
2023/05/26 06:29:22;;;;;;;;;;;;;;;-143.29;100.00;62188.47;4615993;31;20393;-92
2023/05/26 06:31:47;;;;;;;;;;;;;;;-143.29;100.00;62188.47;4628992;31;19983;-91
2023/05/26 06:34:12;;;;;;;;;;;;;;;-143.29;100.00;62188.47;4628831;31;19924;-92
2023/05/26 06:36:38;;;;;;;;;;;;;;;-143.29;100.00;62188.47;4615940;31;19932;-92
2023/05/26 06:39:03;;;;;;;;;;;;;;;-143.29;100.00;62188.47;4628462;31;19980;-92
2023/05/26 06:41:28;;;;;;;;;;;;;;;-143.29;100.00;62188.47;4615853;31;19928;-92
2023/05/26 06:43:54;;;;;;;;;;;;;;;-143.29;100.00;62188.47;4615948;31;19929;-92
2023/05/26 06:46:19;;;;;;;;;;;;;;;-143.29;100.00;62188.47;4615884;31;19932;-93
2023/05/26 06:48:45;;;;;;;;;;;;;;;-143.29;100.00;62188.47;4615618;31;19925;-92
2023/05/26 06:51:10;;;;;;;;;;;;;;;-143.29;100.00;62188.47;4628311;31;20430;-93
2023/05/26 06:53:37;;;;;;;;;;;;;;;-143.29;100.00;62188.47;4615753;31;19932;-92
2023/05/26 06:56:02;;;;;;;;;;;;;;;-143.29;100.00;62188.47;4615755;31;19925;-93
2023/05/26 06:58:27;;;;;;;;;;;;;;;-143.29;100.00;62188.47;4628335;31;19924;-92
2023/05/26 07:00:59;;;;;;;;;;;;;;;-143.29;100.00;62188.47;4615566;31;20373;-92
2023/05/26 07:03:25;;;;;;;;;;;;;;;-143.29;100.00;62188.47;4615494;31;20034;-93
2023/05/26 07:05:50;;;;;;;;;;;;;;;-143.29;100.00;62188.47;4615511;31;19931;-93
2023/05/26 07:08:16;;;;;;;;;;;;;;;-143.29;100.00;62188.47;4615412;31;20007;-92
2023/05/26 07:10:41;;;;;;;;;;;;;;;-143.29;100.00;62188.47;4615504;31;19998;-92
2023/05/26 07:13:06;;;;;;;;;;;;;;;-143.29;100.00;62188.47;4627339;31;19925;-91
2023/05/26 07:15:32;;;;;;;;;;;;;;;-143.29;100.00;62188.47;4615509;31;20381;-92
2023/05/26 07:17:57;;;;;;;;;;;;;;;-143.29;100.00;62188.47;4613967;31;19932;-92
2023/05/26 07:20:22;;;;;;;;;;;;;;;-143.29;100.00;62188.47;4615231;31;19931;-93
2023/05/26 07:22:47;;;;;;;;;;;;;;;-143.29;100.00;62188.47;4615167;31;19956;-92
2023/05/26 07:25:12;;;;;;;;;;;;;;;-143.29;100.00;62188.47;4615058;31;19985;-92
2023/05/26 07:27:38;;;;;;;;;;;;;;;-143.29;100.00;62188.47;4614878;31;19925;-92
2023/05/26 07:30:03;;;;;;;;;;;;;;;-143.29;100.00;62188.47;4615096;31;20188;-92
2023/05/26 07:32:28;;;;;;;;;;;;;;;-143.29;100.00;62188.47;4615067;31;19993;-92
2023/05/26 07:34:54;;;;;;;;;;;;;;;-143.29;100.00;62188.47;4614997;31;20003;-93
2023/05/26 07:37:19;;;;;;;;;;;;;;;-143.29;100.00;62188.47;4614674;31;19972;-92
2023/05/26 07:39:44;;;;;;;;;;;;;;;-143.29;100.00;62188.47;4614748;31;19929;-92
2023/05/26 07:42:09;;;;;;;;;;;;;;;-143.29;100.00;62188.47;4615242;31;19925;-92
2023/05/26 07:44:35;;;;;;;;;;;;;;;-143.29;100.00;62188.47;4615012;31;20353;-93
2023/05/26 07:47:00;;;;;;;;;;;;;;;-143.29;100.00;62188.47;4627631;31;19929;-93
2023/05/26 07:49:25;;;;;;;;;;;;;;;-143.29;100.00;62188.47;4614603;31;19929;-92
2023/05/26 07:51:50;;;;;;;;;;;;;;;-143.29;100.00;62188.47;4614771;31;19925;-93
2023/05/26 07:54:16;;;;;;;;;;;;;;;-143.29;100.00;62188.47;4614768;31;19948;-93
2023/05/26 07:56:41;;;;;;;;;;;;;;;-143.29;100.00;62188.47;4614639;31;19935;-93
2023/05/26 07:59:06;;;;;;;;;;;;;;;-143.29;100.00;62188.47;4614606;31;20008;-93
2023/05/26 08:01:32;;;;;;;;;;;;;;;-143.29;100.00;62188.47;4614700;31;20298;-92
2023/05/26 08:03:57;;;;;;;;;;;;;;;-143.29;100.00;62188.47;4615089;31;19931;-93
2023/05/26 08:06:22;;;;;;;;;;;;;;;-143.29;100.00;62188.47;4614668;31;19920;-93
2023/05/26 08:08:48;;;;;;;;;;;;;;;-143.29;100.00;62188.47;4614373;31;20410;-93
2023/05/26 08:11:13;;;;;;;;;;;;;;;-143.29;100.00;62188.47;4614482;31;20011;-93
2023/05/26 08:13:38;;;;;;;;;;;;;;;-143.29;100.00;62188.47;4627302;31;19925;-93
2023/05/26 08:16:03;;;;;;;;;;;;;;;-143.29;100.00;62188.47;4627487;31;19931;-94
2023/05/26 08:18:29;;;;;;;;;;;;;;;-143.29;100.00;62188.47;4627143;31;20330;-93
2023/05/26 08:20:54;;;;;;;;;;;;;;;-143.29;100.00;62188.47;4614457;31;20416;-93
2023/05/26 08:23:19;;;;;;;;;;;;;;;-143.29;100.00;62188.47;4614441;31;20390;-93
2023/05/26 08:25:45;;;;;;;;;;;;;;;-143.29;100.00;62188.47;4627075;31;20004;-93
2023/05/26 08:28:10;;;;;;;;;;;;;;;-143.29;100.00;62188.47;4614116;31;20027;-93
2023/05/26 08:30:35;;;;;;;;;;;;;;;-143.29;100.00;62188.47;4627313;31;19932;-93
2023/05/26 08:33:00;;;;;;;;;;;;;;;-143.29;100.00;62188.47;4614295;31;20354;-93
2023/05/26 08:35:26;;;;;;;;;;;;;;;-143.29;100.00;62188.47;4614208;31;19967;-93
2023/05/26 08:37:52;;;;;;;;;;;;;;;-143.29;100.00;62188.47;4614295;31;19925;-93
2023/05/26 08:40:17;;;;;;;;;;;;;;;-143.29;100.00;62188.47;4614130;31;19929;-94
2023/05/26 08:42:45;;;;;;;;;;;;;;;-143.29;100.00;62188.47;4627148;30;19932;-92
2023/05/26 08:45:11;;;;;;;;;;;;;;;-143.29;100.00;62188.47;4626923;30;19948;-93
2023/05/26 08:47:37;;;;;;;;;;;;;;;-143.29;100.00;62188.47;4614196;31;20084;-93
2023/05/26 08:50:03;;;;;;;;;;;;;;;-143.29;100.00;62188.47;4626808;31;20330;-92
2023/05/26 08:52:29;;;;;;;;;;;;;;;-143.29;100.00;62188.47;4626924;31;19976;-93
2023/05/26 08:54:54;;;;;;;;;;;;;;;-143.29;100.00;62188.47;4614309;31;19924;-93
2023/05/26 08:57:20;;;;;;;;;;;;;;;-143.29;100.00;62188.47;4626668;31;19925;-92
2023/05/26 08:59:49;;;;;;;;;;;;;;;-143.29;100.00;62188.47;4627062;30;19925;-94
2023/05/26 09:02:15;;;;;;;;;;;;;;;-143.29;100.00;62188.47;4614043;31;19931;-92
2023/05/26 09:04:40;;;;;;;;;;;;;;;-143.29;100.00;62188.47;4614157;31;19925;-92
2023/05/26 09:07:06;;;;;;;;;;;;;;;-143.29;100.00;62188.47;4614180;31;20024;-93
2023/05/26 09:09:32;;;;;;;;;;;;;;;-143.29;100.00;62188.47;4626723;31;19972;-93
2023/05/26 09:11:57;;;;;;;;;;;;;;;-143.29;100.00;62188.47;4614041;31;20080;-93
2023/05/26 09:14:22;;;;;;;;;;;;;;;-143.29;100.00;62188.47;4626921;30;19925;-93
2023/05/26 09:16:48;;;;;;;;;;;;;;;-143.29;100.00;62188.47;4626534;31;19932;-93
2023/05/26 09:19:14;;;;;;;;;;;;;;;-143.29;100.00;62188.47;4614168;31;19943;-94
2023/05/26 09:21:44;;;;;;;;;;;;;;;-143.29;100.00;62188.47;4614135;31;20408;-93
2023/05/26 09:24:09;;;;;;;;;;;;;;;-143.29;100.00;62188.47;4614019;31;19924;-93
2023/05/26 09:26:38;;;;;;;;;;;;;;;-143.29;100.00;62188.47;4613817;31;19921;-93
2023/05/26 09:29:05;;;;;;;;;;;;;;;-143.29;100.00;62188.47;4613808;31;19925;-93
2023/05/26 09:31:44;;;;;;;;;;;;;;;-143.29;100.00;62188.47;4613822;31;19932;-94
2023/05/26 09:34:10;;;;;;;;;;;;;;;-143.29;100.00;62188.47;4613759;31;20028;-94
2023/05/26 09:36:36;;;;;;;;;;;;;;;-143.29;100.00;62188.47;4615127;31;20373;-93
2023/05/26 09:39:03;;;;;;;;;;;;;;;-143.29;100.00;62188.47;4616715;31;19964;-93
2023/05/26 09:41:38;;;;;;;;;;;;;;;-143.29;100.00;62188.47;4629419;31;19929;-92
2023/05/26 09:44:10;;;;;;;;;;;;;;;-143.29;100.00;62188.47;4616772;31;19936;-93
2023/05/26 09:46:36;;;;;;;;;;;;;;;-143.29;100.00;62188.47;4616784;31;20007;-92
2023/05/26 09:49:12;;;;;;;;;;;;;;;-143.29;100.00;62188.47;4616592;31;20366;-93
2023/05/26 09:51:37;;;;;;;;;;;;;;;-143.29;100.00;62188.47;4616767;31;19975;-93
2023/05/26 09:54:03;;;;;;;;;;;;;;;-143.29;100.00;62188.47;4629494;31;19968;-92
2023/05/26 09:56:32;;;;;;;;;;;;;;;-143.29;100.00;62188.47;4616474;31;19925;-93
2023/05/26 09:58:57;;;;;;;;;;;;;;;-143.29;100.00;62188.47;4616412;31;19925;-93
2023/05/26 10:01:24;;;;;;;;;;;;;;;-143.29;100.00;62188.47;4616650;31;19973;-93
2023/05/26 10:03:50;;;;;;;;;;;;;;;-143.29;100.00;62188.47;4616480;31;19925;-92
2023/05/26 10:06:16;;;;;;;;;;;;;;;-143.29;100.00;62188.47;4629387;31;19921;-93
2023/05/26 10:08:44;;;;;;;;;;;;;;;-143.29;100.00;62188.47;4629443;30;20410;-93
2023/05/26 10:11:09;;;;;;;;;;;;;;;-143.29;100.00;62188.47;4615231;31;20317;-93
2023/05/26 10:13:35;;;;;;;;;;;;;;;-143.29;100.00;62188.47;4616588;31;19932;-92
2023/05/26 10:16:01;;;;;;;;;;;;;;;-143.29;100.00;62188.47;4616294;31;19929;-93
2023/05/26 10:18:26;;;;;;;;;;;;;;;-143.29;100.00;62188.47;4616127;31;20374;-93
2023/05/26 10:20:52;;;;;;;;;;;;;;;-143.29;100.00;62188.47;4629070;31;19925;-93
2023/05/26 10:23:24;;;;;;;;;;;;;;;-143.29;100.00;62188.47;4616247;31;19925;-92
2023/05/26 10:26:02;;;;;;;;;;;;;;;-143.29;100.00;62188.47;4615897;31;19929;-93
2023/05/26 10:28:33;;;;;;;;;;;;;;;-143.29;100.00;62188.47;4628872;31;19925;-93
2023/05/26 10:31:02;;;;;;;;;;;;;;;-143.29;100.00;62188.47;4616135;31;19924;-93
2023/05/26 10:33:38;;;;;;;;;;;;;;;-143.29;100.00;62188.47;4615994;31;20064;-93
2023/05/26 10:36:05;;;;;;;;;;;;;;;-143.29;100.00;62188.47;4629405;31;20278;-94
2023/05/26 10:38:35;;;;;;;;;;;;;;;-143.29;100.00;62188.47;4615871;31;19925;-93
2023/05/26 10:41:00;;;;;;;;;;;;;;;-143.29;100.00;62188.47;4615811;31;19933;-92
2023/05/26 10:43:27;;;;;;;;;;;;;;;-143.29;100.00;62188.47;4615895;31;19931;-94
2023/05/26 10:45:55;;;;;;;;;;;;;;;-143.29;100.00;62188.47;4628943;31;19925;-92
2023/05/26 10:48:21;;;;;;;;;;;;;;;-143.29;100.00;62188.47;4628487;30;19932;-93
2023/05/26 10:50:59;;;;;;;;;;;;;;;-143.29;100.00;62188.47;4628633;30;19925;-92
2023/05/26 10:53:25;;;;;;;;;;;;;;;-143.29;100.00;62188.47;4615705;31;19952;-94
2023/05/26 10:55:55;;;;;;;;;;;;;;;-143.29;100.00;62188.47;4628484;31;20405;-92
2023/05/26 10:58:26;;;;;;;;;;;;;;;-143.29;100.00;62188.47;4628187;31;19936;-92
2023/05/26 11:00:55;;;;;;;;;;;;;;;-143.29;100.00;62188.47;4615532;31;20024;-93
2023/05/26 11:03:49;;;;;;;;;;;;;;;-143.29;100.00;62188.47;4628194;30;20019;-93
2023/05/26 11:06:16;;;;;;;;;;;;;;;-143.29;100.00;62188.47;4615078;31;20343;-93
2023/05/26 11:08:46;;;;;;;;;;;;;;;-143.29;100.00;62188.47;4628019;31;19929;-93
2023/05/26 11:11:12;;;;;;;;;;;;;;;-143.29;100.00;62188.47;4615345;31;19928;-91
2023/05/26 11:13:41;;;;;;;;;;;;;;;-143.29;100.00;62188.47;4615384;31;19928;-94
2023/05/26 11:16:11;;;;;;;;;;;;;;;-143.29;100.00;62188.47;4615242;31;19925;-94
2023/05/26 11:18:36;;;;;;;;;;;;;;;-143.29;100.00;62188.47;4615429;31;20023;-92
2023/05/26 11:21:02;;;;;;;;;;;;;;;-143.29;100.00;62188.47;4613950;31;20015;-92
2023/05/26 11:23:28;;;;;;;;;;;;;;;-143.29;100.00;62188.47;4627998;31;19971;-91
2023/05/26 11:25:54;;;;;;;;;;;;;;;-143.29;100.00;62188.47;4615024;31;19929;-93
2023/05/26 11:28:20;;;;;;;;;;;;;;;-143.29;100.00;62188.47;4627924;31;19925;-93
2023/05/26 11:30:46;;;;;;;;;;;;;;;-143.29;100.00;62188.47;4628035;31;19925;-93
2023/05/26 11:33:15;;;;;;;;;;;;;;;-143.29;100.00;62188.47;4614890;31;20424;-93
2023/05/26 11:35:40;;;;;;;;;;;;;;;-143.29;100.00;62188.47;4614904;31;20389;-93
2023/05/26 11:38:05;;;;;;;;;;;;;;;-143.29;100.00;62188.47;4627601;31;19939;-93
2023/05/26 11:40:32;;;;;;;;;;;;;;;-143.29;100.00;62188.47;4614830;31;20381;-92
2023/05/26 11:42:57;;;;;;;;;;;;;;;-143.29;100.00;62188.47;4615091;31;20006;-94
2023/05/26 11:45:23;;;;;;;;;;;;;;;-143.29;100.00;62188.47;4627543;31;20449;-93
2023/05/26 11:47:48;;;;;;;;;;;;;;;-143.29;100.00;62188.47;4627607;31;20412;-94
2023/05/26 11:50:14;;;;;;;;;;;;;;;-143.29;100.00;62188.47;4627580;31;19925;-93
2023/05/26 11:52:46;;;;;;;;;;;;;;;-143.29;100.00;62188.47;4614772;31;20385;-94
2023/05/26 11:55:12;;;;;;;;;;;;;;;-143.29;100.00;62188.47;4627399;31;20436;-94
2023/05/26 11:57:38;;;;;;;;;;;;;;;-143.29;100.00;62188.47;4627545;31;20297;-93
2023/05/26 12:00:09;;;;;;;;;;;;;;;-143.29;100.00;62188.47;4614246;31;20369;-93
2023/05/26 12:02:34;;;;;;;;;;;;;;;-143.29;100.00;62188.47;4627406;31;20008;-93
2023/05/26 12:05:00;;;;;;;;;;;;;;;-143.29;100.00;62188.47;4614624;31;19989;-93
2023/05/26 12:07:30;;;;;;;;;;;;;;;-143.29;100.00;62188.47;4614637;31;19925;-94
2023/05/26 12:10:06;;;;;;;;;;;;;;;-143.29;100.00;62188.47;4614358;31;19925;-93
2023/05/26 12:12:33;;;;;;;;;;;;;;;-143.29;100.00;62188.47;4627220;31;19925;-94
2023/05/26 12:15:07;;;;;;;;;;;;;;;-143.29;100.00;62188.47;4627439;31;19932;-93